Adrian, North Dakota
Current Conditions -  °F | °C
As of 1:56 AM on Friday 19 Dec 2014 (Local Time) from KJMS Reporting Station
Haze Haze  
Wind Chill: -9°   Ceiling: 500
Heat Index: -4°   Visibility: 4mi
Dew Point: -5°   Wind: 9mph
Humidity: 92%   Direction: 180°S
Pressure: 30.03"   Gusts: NA
Location:  46.6526°N, 98.6214°W
Report Text: KJMS 190756Z AUTO 18008KT 4SM BR OVC005 M04/M05 A3003 RMK AO2 SLP195 T10391050
Loading
Personal Weather Stations






























Interactive Weather Map New forecast layout! Learn more

10-Day Weather Forecast

Advertisements
Track Severe Weather on mobile